Time;durP1;ratioP1;P1;durP2;ratioP2;P2;SDS_P1;SDS_P2;PMS_P1;PMS_P2;Temp;Humidity;BMP_temperature;BMP_pressure;BME280_temperature;BME280_humidity;BME280_pressure;Samples;Min_cycle;Max_cycle;Signal;HPM_P1;HPM_P2
2022/04/05 00:00:55;;;;;;;12.27;10.63;;;;;;;5.17;60.08;98156.66;5053280;28;20080;-73
2022/04/05 00:03:22;;;;;;;13.55;10.30;;;;;;;5.20;59.85;98166.84;5053569;28;20263;-77
2022/04/05 00:05:49;;;;;;;11.38;7.40;;;;;;;5.24;59.56;98168.28;5054034;28;20103;-78
2022/04/05 00:08:17;;;;;;;11.65;9.65;;;;;;;5.19;59.51;98154.75;5053227;28;20057;-77
2022/04/05 00:10:45;;;;;;;12.23;10.52;;;;;;;5.13;59.84;98158.72;5054213;28;20049;-82
2022/04/05 00:13:12;;;;;;;10.60;8.50;;;;;;;5.12;60.09;98149.19;5054058;28;20689;-80
2022/04/05 00:15:39;;;;;;;11.85;8.00;;;;;;;5.12;59.99;98150.97;5058003;28;20041;-75
2022/04/05 00:18:06;;;;;;;13.52;12.00;;;;;;;5.06;59.94;98151.47;5064359;28;20124;-77
2022/04/05 00:20:34;;;;;;;12.07;8.07;;;;;;;5.08;59.89;98160.88;5056923;28;20131;-84
2022/04/05 00:23:01;;;;;;;11.55;9.55;;;;;;;5.07;59.70;98151.34;5056225;28;20501;-78
2022/04/05 00:25:29;;;;;;;10.65;8.95;;;;;;;5.05;59.81;98142.00;5039958;28;20133;-81
2022/04/05 00:27:58;;;;;;;10.45;8.85;;;;;;;5.05;59.87;98124.50;5064095;28;20117;-83
2022/04/05 00:30:26;;;;;;;14.50;9.27;;;;;;;5.04;60.09;98146.41;5068406;28;20084;-81
2022/04/05 00:32:53;;;;;;;10.38;8.27;;;;;;;5.05;59.91;98139.38;5062351;28;20244;-83
2022/04/05 00:35:21;;;;;;;14.18;10.48;;;;;;;5.02;60.31;98127.34;5064260;28;20105;-80
2022/04/05 00:37:48;;;;;;;14.07;10.63;;;;;;;5.01;60.38;98130.94;5056428;28;20041;-80
2022/04/05 00:40:15;;;;;;;15.02;9.98;;;;;;;5.01;60.59;98128.34;5059974;28;20449;-86
2022/04/05 00:42:43;;;;;;;14.18;9.07;;;;;;;5.04;60.42;98115.00;5056729;28;20144;-84
2022/04/05 00:45:15;;;;;;;9.15;8.18;;;;;;;5.04;60.49;98107.16;5055866;28;20133;-82
2022/04/05 00:47:48;;;;;;;12.65;10.43;;;;;;;5.04;60.69;98104.53;5053365;28;20483;-81
2022/04/05 00:50:20;;;;;;;12.45;9.43;;;;;;;5.03;60.79;98102.03;5052633;28;20386;-81
2022/04/05 00:52:47;;;;;;;11.40;9.38;;;;;;;5.00;60.62;98110.13;5052646;28;20076;-82
2022/04/05 00:55:16;;;;;;;11.20;7.95;;;;;;;4.97;60.57;98098.97;5052583;28;20049;-80
2022/04/05 00:57:46;;;;;;;11.35;8.63;;;;;;;4.96;60.51;98104.34;5029862;28;20100;-81
2022/04/05 01:00:17;;;;;;;14.23;9.45;;;;;;;4.96;60.56;98091.25;5039543;28;20608;-79
2022/04/05 01:02:47;;;;;;;12.68;10.23;;;;;;;4.94;61.05;98093.19;5056004;28;20042;-81
2022/04/05 01:05:17;;;;;;;11.07;9.90;;;;;;;4.98;61.17;98090.16;5054754;28;20557;-81
2022/04/05 01:07:46;;;;;;;14.52;8.82;;;;;;;5.00;61.42;98104.91;5062773;28;20033;-75
2022/04/05 01:10:13;;;;;;;13.85;9.30;;;;;;;5.01;61.15;98094.31;5064000;28;20513;-77
2022/04/05 01:12:41;;;;;;;13.48;10.65;;;;;;;5.06;61.46;98093.91;5065984;28;20099;-83
2022/04/05 01:15:09;;;;;;;15.00;10.85;;;;;;;5.07;61.52;98091.19;5063356;28;20029;-77
2022/04/05 01:17:38;;;;;;;9.70;7.38;;;;;;;5.16;61.10;98113.94;5061394;28;20095;-79
2022/04/05 01:20:05;;;;;;;17.23;13.00;;;;;;;5.16;61.40;98100.84;5060930;28;20140;-77
2022/04/05 01:22:33;;;;;;;13.82;10.68;;;;;;;5.21;61.38;98089.19;5058476;28;20135;-80
2022/04/05 01:25:01;;;;;;;13.68;10.38;;;;;;;5.27;61.39;98078.19;5060294;28;20108;-78
2022/04/05 01:27:29;;;;;;;16.10;11.18;;;;;;;5.32;61.50;98078.63;5060983;28;20371;-83
2022/04/05 01:29:56;;;;;;;14.70;11.25;;;;;;;5.35;61.55;98087.06;5061852;28;20112;-81
2022/04/05 01:32:25;;;;;;;18.60;15.20;;;;;;;5.34;61.76;98095.03;5065171;28;20060;-77
2022/04/05 01:34:52;;;;;;;15.27;10.52;;;;;;;5.41;61.68;98082.25;5064003;28;20049;-75
2022/04/05 01:37:19;;;;;;;22.08;15.43;;;;;;;5.42;62.04;98074.28;5066885;28;20060;-77
2022/04/05 01:39:47;;;;;;;15.45;10.88;;;;;;;5.44;62.07;98068.88;5068879;28;20060;-80
2022/04/05 01:42:17;;;;;;;19.15;15.80;;;;;;;5.49;62.07;98066.69;5068826;28;20068;-79
2022/04/05 01:44:45;;;;;;;15.20;11.35;;;;;;;5.55;62.12;98066.19;5047834;28;20055;-76
2022/04/05 01:47:13;;;;;;;14.82;11.95;;;;;;;5.55;62.05;98063.56;5064020;28;20041;-79
2022/04/05 01:49:42;;;;;;;17.63;14.00;;;;;;;5.58;62.73;98067.69;5064737;28;20059;-77
2022/04/05 01:52:10;;;;;;;16.27;12.32;;;;;;;5.65;62.07;98055.72;5066682;28;20080;-75
2022/04/05 01:54:37;;;;;;;10.88;8.52;;;;;;;5.70;61.95;98059.59;5064519;28;20047;-78
2022/04/05 01:57:07;;;;;;;14.95;11.95;;;;;;;5.73;62.21;98063.75;5061467;28;20064;-79
2022/04/05 01:59:40;;;;;;;17.30;13.15;;;;;;;5.76;62.55;98058.22;5048448;28;20051;-77
2022/04/05 02:02:08;;;;;;;18.15;12.93;;;;;;;5.81;62.31;98040.31;5048985;28;20211;-80
2022/04/05 02:04:37;;;;;;;12.25;10.23;;;;;;;5.85;62.35;98052.19;5050665;28;20051;-81
2022/04/05 02:07:10;;;;;;;16.70;8.90;;;;;;;5.90;62.20;98042.09;5047928;28;20136;-77
2022/04/05 02:09:38;;;;;;;14.63;9.10;;;;;;;5.93;62.12;98060.19;5048875;28;20049;-83
2022/04/05 02:12:12;;;;;;;14.27;10.23;;;;;;;5.96;62.21;98046.03;5054458;28;20101;-77
2022/04/05 02:14:42;;;;;;;16.40;12.77;;;;;;;6.01;61.93;98043.00;5019100;28;20056;-72
2022/04/05 02:17:11;;;;;;;10.75;7.95;;;;;;;6.05;61.78;98052.22;5051308;28;20204;-76
2022/04/05 02:19:40;;;;;;;13.73;11.05;;;;;;;6.05;61.87;98060.09;5052116;28;20051;-79
2022/04/05 02:22:07;;;;;;;13.00;10.40;;;;;;;6.06;61.83;98053.91;5053023;28;20065;-83
2022/04/05 02:24:34;;;;;;;12.98;10.70;;;;;;;6.07;61.83;98052.94;5051739;28;20100;-82
2022/04/05 02:27:01;;;;;;;13.90;10.65;;;;;;;6.10;61.79;98053.50;5052533;28;20051;-76
2022/04/05 02:29:28;;;;;;;12.82;10.73;;;;;;;6.09;61.96;98064.13;5053262;28;20076;-82
2022/04/05 02:31:58;;;;;;;18.17;13.75;;;;;;;6.10;62.10;98060.50;5052861;28;20140;-75
2022/04/05 02:34:25;;;;;;;17.67;11.55;;;;;;;6.12;61.92;98058.56;5055075;28;20128;-77
2022/04/05 02:36:52;;;;;;;14.65;9.57;;;;;;;6.15;62.02;98042.59;5053561;28;20633;-79
2022/04/05 02:39:19;;;;;;;13.85;9.43;;;;;;;6.16;61.89;98054.75;5056288;28;20053;-77
2022/04/05 02:41:46;;;;;;;14.68;11.23;;;;;;;6.15;61.76;98042.59;5056666;28;20124;-76
2022/04/05 02:44:13;;;;;;;14.68;10.32;;;;;;;6.19;61.96;98045.75;5053942;28;20132;-74
2022/04/05 02:46:40;;;;;;;16.70;11.55;;;;;;;6.20;61.86;98036.94;5054110;28;20087;-87
2022/04/05 02:49:09;;;;;;;16.13;11.50;;;;;;;6.23;61.88;98041.88;5054988;28;20127;-84
2022/04/05 02:51:36;;;;;;;14.40;10.00;;;;;;;6.27;61.76;98036.25;5052132;28;20045;-78
2022/04/05 02:54:03;;;;;;;15.52;9.85;;;;;;;6.28;61.84;98032.66;5051941;28;20501;-80
2022/04/05 02:56:30;;;;;;;13.63;9.60;;;;;;;6.35;61.75;98029.47;5053543;28;20084;-82
2022/04/05 02:58:57;;;;;;;17.55;11.60;;;;;;;6.37;61.53;98027.53;5050980;28;20131;-80
2022/04/05 03:01:24;;;;;;;14.15;10.10;;;;;;;6.39;61.55;98034.31;5051671;28;20045;-79
2022/04/05 03:03:51;;;;;;;16.15;11.77;;;;;;;6.41;61.52;98032.38;5051741;28;20512;-81
2022/04/05 03:06:20;;;;;;;14.65;10.50;;;;;;;6.44;61.61;98026.03;5049183;28;20045;-75
2022/04/05 03:08:47;;;;;;;15.13;11.13;;;;;;;6.41;61.62;98024.50;5049991;28;20041;-78
2022/04/05 03:11:14;;;;;;;14.88;10.30;;;;;;;6.41;61.57;98029.75;5052953;28;20453;-80
2022/04/05 03:13:41;;;;;;;15.30;11.90;;;;;;;6.41;61.68;98026.28;5052423;28;20079;-79
2022/04/05 03:16:08;;;;;;;18.67;12.55;;;;;;;6.44;61.73;98026.84;5052735;28;20045;-81
2022/04/05 03:18:36;;;;;;;15.77;12.60;;;;;;;6.43;61.67;98024.38;5058675;28;20124;-74
2022/04/05 03:21:04;;;;;;;16.38;11.98;;;;;;;6.46;61.55;98027.56;5061557;28;20143;-80
2022/04/05 03:23:32;;;;;;;17.17;13.02;;;;;;;6.46;61.75;98024.06;5060034;28;20057;-75
2022/04/05 03:25:59;;;;;;;16.40;13.15;;;;;;;6.45;61.81;98017.19;5059537;28;20051;-72
2022/04/05 03:28:26;;;;;;;17.40;11.40;;;;;;;6.50;61.79;98023.66;5059747;28;20072;-82
2022/04/05 03:30:53;;;;;;;18.42;14.55;;;;;;;6.53;61.64;98019.94;5061273;28;20049;-77
2022/04/05 03:33:20;;;;;;;15.27;11.05;;;;;;;6.58;61.58;98022.97;5065542;28;20156;-78
2022/04/05 03:35:47;;;;;;;20.70;18.05;;;;;;;6.57;61.68;98029.19;5058648;28;20091;-79
2022/04/05 03:38:15;;;;;;;14.38;11.23;;;;;;;6.60;61.66;98028.06;5048101;28;20049;-79
2022/04/05 03:40:43;;;;;;;17.88;13.45;;;;;;;6.65;61.64;98018.81;5055408;28;20056;-79
2022/04/05 03:43:12;;;;;;;18.75;14.07;;;;;;;6.66;61.51;98024.88;5056946;28;20080;-77
2022/04/05 03:45:40;;;;;;;20.38;14.95;;;;;;;6.69;61.33;98020.16;5059006;28;20129;-79
2022/04/05 03:48:07;;;;;;;22.50;16.98;;;;;;;6.73;61.44;98022.53;5058316;28;20043;-77
2022/04/05 03:50:35;;;;;;;16.67;11.13;;;;;;;6.81;61.21;98012.97;5057813;28;20065;-82
2022/04/05 03:53:02;;;;;;;19.15;14.25;;;;;;;6.84;61.11;98024.97;5054983;28;20042;-81
2022/04/05 03:55:29;;;;;;;16.50;13.80;;;;;;;6.86;61.06;98020.41;5052625;28;20081;-80
2022/04/05 03:57:58;;;;;;;12.73;10.02;;;;;;;6.93;61.04;98012.78;5048032;28;20077;-83
2022/04/05 04:00:25;;;;;;;16.88;12.23;;;;;;;6.94;60.95;98019.72;5046845;28;20112;-77
2022/04/05 04:02:52;;;;;;;15.60;13.05;;;;;;;6.95;61.02;98018.72;5043551;28;20101;-79
2022/04/05 04:05:20;;;;;;;23.02;17.23;;;;;;;6.97;60.84;98017.63;5041818;28;20115;-78
2022/04/05 04:07:49;;;;;;;17.30;12.35;;;;;;;7.01;60.84;98018.97;5032815;28;20041;-76
2022/04/05 04:10:16;;;;;;;12.38;9.20;;;;;;;7.07;60.65;98013.16;5044399;28;20049;-80
2022/04/05 04:12:43;;;;;;;16.70;10.75;;;;;;;7.11;60.62;98012.88;5046192;28;20121;-75
2022/04/05 04:15:12;;;;;;;17.20;13.27;;;;;;;7.13;60.55;98010.91;5047124;28;20090;-78
2022/04/05 04:17:39;;;;;;;11.13;9.10;;;;;;;7.16;60.49;98005.38;5040162;28;20049;-76
2022/04/05 04:20:07;;;;;;;15.60;12.32;;;;;;;7.16;60.39;98023.75;5038037;28;20041;-78
2022/04/05 04:22:34;;;;;;;12.75;9.27;;;;;;;7.23;60.28;98011.72;5043079;28;20116;-78
2022/04/05 04:25:01;;;;;;;19.95;15.93;;;;;;;7.22;60.24;98004.78;5058668;28;20044;-81
2022/04/05 04:27:28;;;;;;;15.75;10.93;;;;;;;7.25;60.07;98004.50;5062356;28;20127;-80
2022/04/05 04:29:56;;;;;;;17.20;11.10;;;;;;;7.26;60.13;98007.00;5066704;28;20076;-74
2022/04/05 04:32:25;;;;;;;15.23;13.68;;;;;;;7.28;59.93;98020.81;5078313;28;20059;-76
2022/04/05 04:34:52;;;;;;;17.88;14.27;;;;;;;7.28;59.89;98020.81;5079220;28;20049;-80
2022/04/05 04:37:19;;;;;;;15.48;11.20;;;;;;;7.36;59.81;98021.88;5078730;28;20028;-77
2022/04/05 04:39:46;;;;;;;11.13;9.25;;;;;;;7.41;59.51;98024.91;5067375;28;20029;-75
2022/04/05 04:42:13;;;;;;;15.68;9.65;;;;;;;7.43;59.44;98008.00;5067421;28;20117;-79
2022/04/05 04:44:41;;;;;;;14.77;13.07;;;;;;;7.45;59.57;98018.38;5070683;28;20128;-79
2022/04/05 04:47:09;;;;;;;13.85;12.05;;;;;;;7.48;59.35;98018.09;5070120;28;20076;-82
2022/04/05 04:49:37;;;;;;;14.88;11.23;;;;;;;7.50;59.27;98013.50;5066249;28;20111;-78
2022/04/05 04:52:05;;;;;;;14.35;12.18;;;;;;;7.51;59.18;98030.09;5064737;28;20033;-77
2022/04/05 04:54:32;;;;;;;15.35;10.23;;;;;;;7.55;59.06;98029.66;5040759;28;20037;-75
2022/04/05 04:56:59;;;;;;;14.00;10.50;;;;;;;7.50;59.19;98037.16;5066025;28;20114;-80
2022/04/05 04:59:26;;;;;;;18.27;12.77;;;;;;;7.47;59.30;98035.66;5064922;28;20056;-74
2022/04/05 05:01:53;;;;;;;16.67;12.15;;;;;;;7.49;59.28;98032.88;5076494;28;20095;-74
2022/04/05 05:04:20;;;;;;;16.67;13.20;;;;;;;7.51;59.44;98037.97;5083993;28;20135;-81
2022/04/05 05:06:51;;;;;;;12.35;9.48;;;;;;;7.51;59.32;98025.69;5078499;28;20101;-86
2022/04/05 05:09:18;;;;;;;14.82;11.57;;;;;;;7.51;59.27;98030.09;5073357;28;20041;-75
2022/04/05 05:11:45;;;;;;;15.82;12.35;;;;;;;7.50;59.39;98021.38;5072238;28;20040;-79
2022/04/05 05:14:12;;;;;;;17.70;13.82;;;;;;;7.50;59.43;98020.56;5061440;28;20071;-79
2022/04/05 05:16:39;;;;;;;16.17;12.73;;;;;;;7.51;59.50;98019.59;5057032;28;20119;-72
2022/04/05 05:19:06;;;;;;;14.60;10.73;;;;;;;7.53;59.38;98025.53;5059697;28;20644;-77
2022/04/05 05:21:34;;;;;;;19.83;14.00;;;;;;;7.53;59.55;98033.44;5075118;28;20068;-76
2022/04/05 05:24:04;;;;;;;23.95;16.17;;;;;;;7.57;59.49;98037.41;5071424;28;20045;-76
2022/04/05 05:26:31;;;;;;;18.75;12.57;;;;;;;7.62;59.35;98037.78;5069848;28;20080;-75
2022/04/05 05:28:58;;;;;;;19.38;12.38;;;;;;;7.75;59.27;98051.41;5069106;28;20052;-76
2022/04/05 05:31:25;;;;;;;19.75;13.23;;;;;;;7.90;58.94;98051.72;5068539;28;20076;-75
2022/04/05 05:33:52;;;;;;;16.25;11.40;;;;;;;8.03;58.51;98041.69;5067774;28;20048;-74
2022/04/05 05:36:19;;;;;;;15.63;12.10;;;;;;;8.09;58.41;98047.31;5066443;28;20083;-73
2022/04/05 05:38:46;;;;;;;13.32;11.48;;;;;;;8.17;58.25;98052.63;5064872;28;20124;-73
2022/04/05 05:41:15;;;;;;;14.50;11.25;;;;;;;8.19;57.48;98059.41;5065527;28;20152;-79
2022/04/05 05:43:45;;;;;;;11.98;10.27;;;;;;;8.27;57.43;98063.09;5067148;28;20037;-78
2022/04/05 05:46:13;;;;;;;12.55;9.40;;;;;;;8.26;56.90;98061.44;5058750;28;20033;-78
2022/04/05 05:48:41;;;;;;;12.30;11.10;;;;;;;8.26;56.57;98083.28;5051099;28;20048;-82
2022/04/05 05:51:08;;;;;;;15.15;10.93;;;;;;;8.32;56.32;98080.06;5045792;28;20557;-78
2022/04/05 05:53:35;;;;;;;10.10;7.75;;;;;;;8.43;55.96;98079.06;5047374;28;20049;-82
2022/04/05 05:56:03;;;;;;;8.85;8.00;;;;;;;8.48;55.77;98102.25;5046624;28;20136;-72
2022/04/05 05:58:31;;;;;;;15.98;11.98;;;;;;;8.49;54.43;98077.63;5045479;28;20096;-77
2022/04/05 06:00:58;;;;;;;15.90;12.38;;;;;;;8.56;54.34;98070.78;5047266;28;20051;-71
2022/04/05 06:03:25;;;;;;;12.55;10.35;;;;;;;8.63;54.44;98077.06;5053047;28;20729;-76
2022/04/05 06:05:53;;;;;;;14.15;10.25;;;;;;;8.69;54.32;98067.75;5048553;28;20131;-79
2022/04/05 06:08:20;;;;;;;10.55;8.30;;;;;;;8.82;54.16;98072.59;5048280;28;20120;-73
2022/04/05 06:10:47;;;;;;;11.73;9.00;;;;;;;8.92;53.98;98089.13;5051412;28;20420;-82
2022/04/05 06:13:15;;;;;;;10.93;9.82;;;;;;;9.06;53.10;98090.41;5050173;28;20053;-85
2022/04/05 06:15:43;;;;;;;12.27;9.43;;;;;;;9.23;53.56;98080.78;5031701;28;20052;-73
2022/04/05 06:18:10;;;;;;;12.02;9.43;;;;;;;9.23;52.68;98086.84;5046461;28;20045;-72
2022/04/05 06:20:37;;;;;;;15.98;10.68;;;;;;;9.29;52.85;98091.53;5046695;28;20123;-77
2022/04/05 06:23:05;;;;;;;12.80;10.20;;;;;;;9.35;51.60;98085.63;5057990;28;20051;-76
2022/04/05 06:25:33;;;;;;;8.77;7.15;;;;;;;9.45;51.75;98092.56;5072173;28;20345;-72
2022/04/05 06:28:02;;;;;;;8.95;7.78;;;;;;;9.59;51.93;98091.16;5066739;28;20045;-72
2022/04/05 06:30:30;;;;;;;10.25;8.05;;;;;;;9.51;50.94;98089.31;5065108;28;20357;-81
2022/04/05 06:33:09;;;;;;;11.93;8.30;;;;;;;9.48;51.63;98110.72;5065510;28;20131;-72
2022/04/05 06:35:37;;;;;;;9.88;8.80;;;;;;;9.43;50.89;98107.72;5065431;28;20048;-72
2022/04/05 06:38:04;;;;;;;9.57;7.57;;;;;;;9.37;51.61;98110.00;5064858;28;20119;-74
2022/04/05 06:40:32;;;;;;;10.05;7.63;;;;;;;9.42;51.68;98111.31;5065650;28;20045;-72
2022/04/05 06:42:58;;;;;;;11.75;9.88;;;;;;;9.45;50.86;98109.19;5065969;28;20132;-72
2022/04/05 06:45:26;;;;;;;9.38;8.30;;;;;;;9.59;50.72;98113.06;5070244;28;20135;-73
2022/04/05 06:47:53;;;;;;;11.65;8.38;;;;;;;9.59;49.96;98094.63;5071310;28;20480;-73
2022/04/05 06:50:24;;;;;;;16.60;10.50;;;;;;;9.73;50.00;98109.03;5069565;28;20045;-71
2022/04/05 06:52:52;;;;;;;11.68;9.52;;;;;;;9.83;49.87;98100.97;5071689;28;20098;-73
2022/04/05 06:55:19;;;;;;;14.27;8.95;;;;;;;9.87;47.81;98110.22;5074089;28;20045;-71
2022/04/05 06:57:46;;;;;;;9.55;7.13;;;;;;;10.07;48.13;98116.06;5072259;28;20071;-77
2022/04/05 07:00:17;;;;;;;8.52;5.78;;;;;;;10.07;48.19;98106.31;5074653;28;20123;-71
2022/04/05 07:02:44;;;;;;;6.55;5.15;;;;;;;10.08;48.26;98108.00;5073924;28;20056;-72
2022/04/05 07:05:11;;;;;;;14.68;9.35;;;;;;;9.98;47.97;98112.56;5077711;28;20139;-74
2022/04/05 07:07:40;;;;;;;12.13;7.78;;;;;;;10.04;48.07;98108.47;5070075;28;20055;-71
2022/04/05 07:10:09;;;;;;;7.45;5.70;;;;;;;10.09;47.52;98114.91;5067867;28;20079;-75
2022/04/05 07:12:36;;;;;;;10.05;4.85;;;;;;;10.01;46.48;98117.53;5065217;28;20091;-71
2022/04/05 07:15:04;;;;;;;8.98;5.85;;;;;;;10.04;46.67;98121.66;5066638;28;20094;-77
2022/04/05 07:17:31;;;;;;;6.72;5.15;;;;;;;9.73;45.71;98119.56;5064370;28;20079;-77
2022/04/05 07:19:58;;;;;;;7.50;4.63;;;;;;;9.66;46.66;98123.81;5012098;28;20044;-71
2022/04/05 07:22:26;;;;;;;5.47;3.80;;;;;;;9.72;47.14;98123.16;5029414;28;20164;-78
2022/04/05 07:24:57;;;;;;;7.07;4.93;;;;;;;9.79;47.27;98129.47;5066350;28;20053;-74
2022/04/05 07:27:23;;;;;;;7.80;4.95;;;;;;;9.65;47.76;98132.69;5064538;28;20102;-74
2022/04/05 07:29:51;;;;;;;7.47;4.35;;;;;;;9.59;47.88;98115.69;5064885;28;20132;-77
2022/04/05 07:32:18;;;;;;;5.85;3.80;;;;;;;9.57;47.50;98133.47;5064450;28;20117;-73
2022/04/05 07:34:45;;;;;;;7.15;3.55;;;;;;;9.79;47.45;98155.00;5065159;28;20051;-82
2022/04/05 07:37:12;;;;;;;6.13;3.00;;;;;;;9.96;46.44;98135.63;5064834;28;20044;-71
2022/04/05 07:39:40;;;;;;;5.55;2.95;;;;;;;10.13;46.44;98134.69;5068555;28;20203;-74
2022/04/05 07:42:09;;;;;;;4.00;2.78;;;;;;;10.00;46.18;98141.41;5065023;28;20098;-81
2022/04/05 07:44:36;;;;;;;7.95;3.28;;;;;;;9.73;46.34;98151.19;5064353;28;20048;-71
2022/04/05 07:47:05;;;;;;;8.48;3.60;;;;;;;9.55;46.76;98151.28;5066042;28;20136;-77
2022/04/05 07:49:32;;;;;;;9.02;3.17;;;;;;;9.38;46.61;98156.44;5064578;28;20048;-70
2022/04/05 07:51:59;;;;;;;4.63;3.42;;;;;;;9.24;47.05;98162.28;5064751;28;20044;-81
2022/04/05 07:54:26;;;;;;;8.77;3.80;;;;;;;9.22;47.32;98156.34;5066411;28;20059;-72
2022/04/05 07:56:53;;;;;;;3.42;2.63;;;;;;;9.22;47.39;98166.03;5047704;28;20154;-73
2022/04/05 07:59:21;;;;;;;4.10;2.67;;;;;;;9.47;47.25;98173.13;5069711;28;20104;-72
2022/04/05 08:01:49;;;;;;;5.90;3.08;;;;;;;9.64;46.89;98168.78;5070759;28;20055;-79
2022/04/05 08:04:16;;;;;;;5.97;2.78;;;;;;;9.79;46.86;98155.81;5067461;28;20048;-76
2022/04/05 08:06:43;;;;;;;5.78;2.72;;;;;;;9.81;47.13;98174.13;5069929;28;20064;-84
2022/04/05 08:09:10;;;;;;;4.82;2.42;;;;;;;9.70;47.08;98180.50;5069298;28;20124;-79
2022/04/05 08:15:01;;;;;;;3.95;2.03;;;;;;;10.26;46.58;98179.09;5067296;28;20119;-69
2022/04/05 08:17:28;;;;;;;7.35;3.58;;;;;;;10.43;46.27;98179.19;5067657;28;20492;-80
2022/04/05 08:19:55;;;;;;;4.38;2.90;;;;;;;10.43;45.99;98185.28;5068348;28;20104;-72
2022/04/05 08:22:21;;;;;;;6.75;3.45;;;;;;;10.67;45.79;98191.59;5066841;28;20044;-80
2022/04/05 08:24:48;;;;;;;4.05;3.65;;;;;;;10.34;44.71;98191.53;5065907;28;20052;-72
2022/04/05 08:27:15;;;;;;;4.85;3.28;;;;;;;10.39;45.50;98189.22;5063930;28;20131;-73
2022/04/05 08:29:42;;;;;;;4.85;2.92;;;;;;;10.37;45.45;98183.28;5065259;28;20755;-70
2022/04/05 08:32:11;;;;;;;7.65;4.38;;;;;;;10.28;45.37;98186.84;5064617;28;20053;-72
2022/04/05 08:34:41;;;;;;;6.03;3.33;;;;;;;10.09;44.99;98194.03;5064610;28;20499;-71
2022/04/05 08:37:09;;;;;;;6.93;3.30;;;;;;;9.72;45.77;98213.66;5063414;28;20090;-71
2022/04/05 08:39:36;;;;;;;10.38;4.50;;;;;;;9.47;46.44;98210.03;5065822;28;20048;-70
2022/04/05 08:42:04;;;;;;;6.25;3.97;;;;;;;9.37;47.16;98212.75;5065972;28;20100;-74
2022/04/05 08:44:31;;;;;;;6.43;4.68;;;;;;;9.40;47.72;98223.94;5064477;28;20465;-70
2022/04/05 08:47:01;;;;;;;6.55;4.43;;;;;;;9.35;48.20;98214.72;5064588;28;20127;-70
2022/04/05 08:49:31;;;;;;;5.95;4.57;;;;;;;9.33;48.75;98213.22;5064663;28;20135;-71
2022/04/05 08:51:58;;;;;;;6.45;4.85;;;;;;;9.45;49.19;98222.50;5066929;28;20051;-70
2022/04/05 08:54:27;;;;;;;6.07;4.82;;;;;;;9.81;48.39;98235.59;5066354;28;20056;-74
2022/04/05 08:56:54;;;;;;;11.68;5.45;;;;;;;9.73;48.39;98231.09;5065746;28;20624;-80
2022/04/05 08:59:21;;;;;;;7.10;5.85;;;;;;;9.58;48.70;98222.13;5066336;28;20049;-73
2022/04/05 09:01:50;;;;;;;13.65;6.03;;;;;;;9.42;49.38;98240.44;5067077;28;20633;-78
2022/04/05 09:04:17;;;;;;;5.55;4.30;;;;;;;9.49;49.06;98246.75;5065269;28;20045;-70
2022/04/05 09:06:46;;;;;;;8.05;6.25;;;;;;;9.36;49.24;98231.34;5064230;28;20139;-74
2022/04/05 09:09:16;;;;;;;5.97;4.60;;;;;;;9.58;49.04;98256.38;5068363;28;20534;-72
2022/04/05 09:11:45;;;;;;;10.23;5.82;;;;;;;9.77;48.68;98257.97;5068934;28;20121;-76
2022/04/05 09:14:12;;;;;;;11.70;5.63;;;;;;;10.06;48.46;98268.19;5064839;28;20390;-70
2022/04/05 09:16:39;;;;;;;12.32;6.40;;;;;;;10.43;48.13;98253.91;5064839;28;20128;-75
2022/04/05 09:19:12;;;;;;;9.77;5.32;;;;;;;10.45;48.31;98266.94;5047135;28;20106;-73
2022/04/05 09:21:54;;;;;;;8.95;6.28;;;;;;;10.36;49.03;98267.88;5065872;28;20488;-71
2022/04/05 09:24:21;;;;;;;6.97;5.55;;;;;;;10.41;48.86;98273.53;5065849;28;20044;-72
2022/04/05 09:26:48;;;;;;;10.77;6.45;;;;;;;10.02;49.30;98268.69;5064422;28;20095;-73
2022/04/05 09:29:18;;;;;;;9.27;5.97;;;;;;;10.12;49.37;98267.59;5065392;28;20117;-76
2022/04/05 09:31:48;;;;;;;8.90;5.43;;;;;;;10.40;49.05;98262.13;5065353;28;20118;-71
2022/04/05 09:34:19;;;;;;;9.68;5.85;;;;;;;10.45;48.54;98270.38;5066298;28;20432;-75
2022/04/05 09:36:49;;;;;;;12.48;5.65;;;;;;;10.31;48.20;98266.53;5065727;28;20052;-72
2022/04/05 09:39:20;;;;;;;10.18;7.18;;;;;;;10.45;47.96;98261.66;5071032;28;20647;-78
2022/04/05 09:41:52;;;;;;;10.75;4.80;;;;;;;10.20;47.73;98268.59;5065378;28;20254;-72
2022/04/05 09:44:27;;;;;;;7.80;5.22;;;;;;;10.04;47.77;98278.06;5065490;28;20114;-74
2022/04/05 09:47:03;;;;;;;;;;;;;;;10.01;47.84;98270.50;5065695;28;20055;-71
2022/04/05 09:49:32;;;;;;;7.03;5.00;;;;;;;9.71;48.21;98277.88;5065746;28;20344;-72
2022/04/05 09:52:00;;;;;;;7.13;4.38;;;;;;;9.85;48.65;98273.00;5065251;28;20968;-74
2022/04/05 09:54:30;;;;;;;6.40;4.90;;;;;;;10.18;48.46;98270.59;5064347;28;20055;-70
2022/04/05 09:57:03;;;;;;;7.22;4.45;;;;;;;10.16;47.63;98264.63;5063709;28;20190;-72
2022/04/05 09:59:39;;;;;;;8.63;5.28;;;;;;;10.14;46.00;98262.97;5063751;28;20048;-77
2022/04/05 10:02:11;;;;;;;5.82;3.72;;;;;;;10.34;45.30;98275.97;5064946;28;20052;-74
2022/04/05 10:04:59;;;;;;;5.90;4.82;;;;;;;10.87;44.68;98276.63;5064769;28;20051;-74
2022/04/05 10:07:28;;;;;;;6.13;3.40;;;;;;;11.53;43.75;98282.81;5062547;28;20067;-74
2022/04/05 10:09:58;;;;;;;8.38;4.32;;;;;;;11.61;42.32;98266.94;5064078;28;20693;-75
2022/04/05 10:12:25;;;;;;;6.45;3.50;;;;;;;12.15;42.08;98270.84;5063822;28;20041;-72
2022/04/05 10:14:53;;;;;;;10.63;3.13;;;;;;;12.80;40.27;98282.97;5064772;28;20068;-75
2022/04/05 10:17:21;;;;;;;7.93;4.07;;;;;;;12.51;37.64;98254.47;5063126;28;20080;-75
2022/04/05 10:19:51;;;;;;;7.50;2.67;;;;;;;11.88;39.17;98291.34;5063133;28;20056;-71
2022/04/05 10:22:19;;;;;;;9.95;4.30;;;;;;;11.65;38.93;98273.53;5062805;28;20139;-70
2022/04/05 10:24:51;;;;;;;7.70;4.18;;;;;;;11.34;40.29;98273.38;5062842;28;20040;-75
2022/04/05 10:27:20;;;;;;;8.25;4.22;;;;;;;10.99;37.54;98256.84;5062399;28;20106;-74
2022/04/05 10:29:54;;;;;;;11.15;4.47;;;;;;;10.60;37.80;98275.06;5063241;28;20156;-78
2022/04/05 10:32:33;;;;;;;11.23;4.60;;;;;;;10.58;38.45;98269.13;5070537;28;20052;-73
2022/04/05 10:35:05;;;;;;;14.13;4.38;;;;;;;10.77;37.75;98262.72;5063568;28;20041;-76
2022/04/05 10:37:34;;;;;;;14.60;3.47;;;;;;;10.55;37.27;98269.44;5062152;28;20108;-77
2022/04/05 10:40:14;;;;;;;12.63;4.13;;;;;;;10.38;37.56;98287.03;5063372;28;20469;-76
2022/04/05 10:42:46;;;;;;;11.25;3.83;;;;;;;10.40;37.21;98285.88;5063814;28;20041;-75
2022/04/05 10:45:16;;;;;;;12.07;4.40;;;;;;;10.43;36.71;98253.06;5046770;28;20044;-75
2022/04/05 10:48:12;;;;;;;14.25;3.35;;;;;;;10.50;36.15;98291.03;5063251;28;20120;-76
2022/04/05 10:50:39;;;;;;;7.88;2.97;;;;;;;10.82;36.41;98290.31;5067113;28;20575;-77
2022/04/05 10:53:21;;;;;;;6.55;2.88;;;;;;;11.17;35.83;98301.63;5070281;28;20079;-78
2022/04/05 10:56:16;;;;;;;8.75;3.42;;;;;;;11.12;34.99;98284.59;5068881;28;20537;-74
2022/04/05 10:59:18;;;;;;;12.00;3.20;;;;;;;11.00;34.94;98286.72;5071208;28;20126;-72
2022/04/05 11:01:45;;;;;;;9.60;2.95;;;;;;;10.72;34.96;98289.63;5066725;28;20119;-77
2022/04/05 11:04:33;;;;;;;9.77;2.85;;;;;;;11.16;35.06;98299.94;5067338;28;20117;-73
2022/04/05 11:07:14;;;;;;;8.45;2.72;;;;;;;11.54;34.52;98305.63;5067771;28;20815;-73
2022/04/05 11:09:48;;;;;;;8.68;3.53;;;;;;;11.57;34.48;98307.91;5066294;28;20048;-78
2022/04/05 11:12:20;;;;;;;11.50;3.83;;;;;;;11.84;32.96;98311.22;5068021;28;20194;-80
2022/04/05 11:14:51;;;;;;;13.65;4.78;;;;;;;11.73;33.32;98315.03;5067074;28;20163;-80
2022/04/05 11:17:21;;;;;;;12.23;6.20;;;;;;;11.66;33.11;98306.91;5067398;28;20052;-76
2022/04/05 11:19:51;;;;;;;19.30;6.97;;;;;;;11.91;34.17;98317.50;5064064;28;20805;-75
2022/04/05 11:22:33;;;;;;;13.15;6.60;;;;;;;12.13;33.37;98312.50;5066598;28;20044;-75
2022/04/05 11:25:04;;;;;;;12.82;5.20;;;;;;;11.93;33.18;98320.00;5064129;28;20139;-73
2022/04/05 11:27:35;;;;;;;10.00;3.95;;;;;;;11.73;32.93;98314.19;5062823;28;20058;-76
2022/04/05 11:30:45;;;;;;;13.80;6.03;;;;;;;11.60;32.24;98325.28;5065559;28;20049;-75
2022/04/05 11:33:14;;;;;;;10.88;5.00;;;;;;;11.39;32.02;98323.13;5061275;28;20162;-75
2022/04/05 11:35:43;;;;;;;8.27;3.08;;;;;;;12.18;31.68;98334.00;5064370;28;20049;-73
2022/04/05 11:38:25;;;;;;;12.00;3.08;;;;;;;12.59;30.59;98310.06;5059779;28;20087;-77
2022/04/05 11:40:56;;;;;;;9.55;2.08;;;;;;;12.49;31.02;98330.63;5070190;28;20045;-71
2022/04/05 11:43:24;;;;;;;12.43;4.00;;;;;;;12.84;29.91;98302.84;5071111;28;20140;-77